Time;durP1;ratioP1;P1;durP2;ratioP2;P2;SDS_P1;SDS_P2;PMS_P1;PMS_P2;Temp;Humidity;BMP_temperature;BMP_pressure;BME280_temperature;BME280_humidity;BME280_pressure;Samples;Min_cycle;Max_cycle;Signal;HPM_P1;HPM_P2
2022/10/19 00:01:13;;;;;;;6.32;1.33;;;;;;;14.78;70.15;101100.31;5079646;28;20051;-73
2022/10/19 00:03:43;;;;;;;5.05;1.38;;;;;;;14.78;70.15;101105.84;5062672;28;20036;-73
2022/10/19 00:06:29;;;;;;;3.05;0.95;;;;;;;14.74;70.43;101118.50;5051980;28;20086;-73
2022/10/19 00:08:57;;;;;;;7.38;1.70;;;;;;;14.73;70.45;101108.56;5069988;28;20493;-73
2022/10/19 00:11:23;;;;;;;6.03;1.58;;;;;;;14.74;70.15;101110.25;5076205;28;20039;-73
2022/10/19 00:13:52;;;;;;;4.35;1.48;;;;;;;14.68;70.57;101105.84;5061234;28;20105;-72
2022/10/19 00:16:18;;;;;;;5.88;1.48;;;;;;;14.61;70.31;101094.25;5070507;28;20029;-74
2022/10/19 00:18:46;;;;;;;8.55;1.30;;;;;;;14.57;70.26;101094.00;5045933;28;20097;-75
2022/10/19 00:21:25;;;;;;;4.40;1.25;;;;;;;14.67;70.69;101115.19;5056940;28;20032;-75
2022/10/19 00:23:51;;;;;;;6.18;1.48;;;;;;;14.67;70.25;101106.94;5087351;28;20039;-72
2022/10/19 00:26:16;;;;;;;3.03;1.00;;;;;;;14.73;70.38;101130.59;5075214;28;20025;-73
2022/10/19 00:28:51;;;;;;;7.70;1.20;;;;;;;14.64;70.68;101110.25;5080560;28;20029;-73
2022/10/19 00:31:17;;;;;;;7.22;1.63;;;;;;;14.63;70.61;101098.44;5062945;28;20464;-72
2022/10/19 00:33:46;;;;;;;5.53;1.25;;;;;;;14.83;70.49;101114.09;5062336;28;20126;-73
2022/10/19 00:36:29;;;;;;;6.80;1.50;;;;;;;14.76;70.33;101112.72;5063725;28;20024;-72
2022/10/19 00:38:55;;;;;;;6.25;1.77;;;;;;;14.75;70.39;101111.09;5058173;28;20029;-72
2022/10/19 00:41:23;;;;;;;3.30;1.33;;;;;;;14.76;70.22;101097.03;5081894;28;20052;-73
2022/10/19 00:44:14;;;;;;;5.78;1.55;;;;;;;14.60;70.64;101076.94;5044171;28;20031;-72
2022/10/19 00:46:49;;;;;;;7.25;1.27;;;;;;;14.59;70.64;101085.47;5080890;28;20036;-72
2022/10/19 00:49:22;;;;;;;;;;;;;;;14.63;71.09;101097.59;5075105;28;20428;-72
2022/10/19 00:51:58;;;;;;;8.82;1.95;;;;;;;14.63;70.81;101103.09;5074850;28;20063;-73
2022/10/19 00:54:24;;;;;;;5.07;1.67;;;;;;;14.64;70.99;101093.75;5059572;28;20036;-72
2022/10/19 00:56:53;;;;;;;7.20;1.50;;;;;;;14.54;70.98;101082.72;5058564;28;20056;-75
2022/10/19 00:59:21;;;;;;;4.50;1.40;;;;;;;14.41;71.46;101090.44;5066847;28;20020;-76
2022/10/19 01:01:47;;;;;;;3.38;1.33;;;;;;;14.32;71.53;101086.56;5082222;28;20058;-75
2022/10/19 01:04:14;;;;;;;3.90;1.40;;;;;;;14.25;72.22;101058.50;5085599;28;20047;-73
2022/10/19 01:06:40;;;;;;;5.18;2.00;;;;;;;14.22;72.13;101070.91;5075067;28;20029;-72
2022/10/19 01:09:07;;;;;;;3.25;1.30;;;;;;;14.18;72.43;101060.69;5071990;28;20119;-72
2022/10/19 01:11:51;;;;;;;9.55;1.63;;;;;;;14.24;72.00;101067.88;5060165;28;20088;-73
2022/10/19 01:14:49;;;;;;;3.88;1.15;;;;;;;14.14;72.87;101066.75;5080300;28;20044;-74
2022/10/19 01:17:55;;;;;;;4.63;1.15;;;;;;;14.02;72.52;101076.38;5073502;28;20052;-71
2022/10/19 01:20:48;;;;;;;6.28;1.63;;;;;;;14.02;72.88;101085.47;5083252;28;20052;-74
2022/10/19 01:23:49;;;;;;;6.25;1.40;;;;;;;13.97;72.80;101085.44;5066187;28;20101;-73
2022/10/19 01:26:15;;;;;;;6.68;1.45;;;;;;;13.90;73.16;101084.88;5067726;28;20029;-73
2022/10/19 01:29:04;;;;;;;5.47;1.38;;;;;;;13.89;73.38;101083.25;5058154;28;20031;-74
2022/10/19 01:31:53;;;;;;;3.70;1.08;;;;;;;13.76;73.33;101063.41;5075410;28;20036;-74
2022/10/19 01:34:30;;;;;;;6.45;1.50;;;;;;;13.71;73.85;101060.66;5080307;28;20064;-73
2022/10/19 01:36:59;;;;;;;5.97;1.52;;;;;;;13.73;74.30;101049.41;5054604;28;20033;-72
2022/10/19 01:39:47;;;;;;;4.30;1.25;;;;;;;13.74;74.15;101053.78;5060508;28;20058;-70
2022/10/19 01:42:15;;;;;;;6.47;1.70;;;;;;;13.73;74.70;101024.66;5051302;28;20053;-71
2022/10/19 01:45:03;;;;;;;10.80;1.35;;;;;;;13.89;74.38;101039.25;5057716;28;20029;-71
2022/10/19 01:47:45;;;;;;;4.50;1.35;;;;;;;13.87;73.97;101030.44;5047679;28;20032;-72
2022/10/19 01:50:53;;;;;;;6.38;1.85;;;;;;;13.93;74.38;101040.34;5075721;28;20035;-72
2022/10/19 01:53:20;;;;;;;5.18;1.20;;;;;;;13.85;73.99;101038.16;5008301;28;20041;-72
2022/10/19 01:55:50;;;;;;;4.57;1.30;;;;;;;13.82;73.78;101044.19;5045249;28;20094;-73
2022/10/19 01:58:23;;;;;;;5.53;1.42;;;;;;;13.72;74.34;101040.31;5052693;28;20378;-72
2022/10/19 02:00:52;;;;;;;3.65;1.25;;;;;;;13.63;74.40;101050.19;5056301;28;20025;-71
2022/10/19 02:03:18;;;;;;;6.35;1.20;;;;;;;13.55;74.82;101046.06;5062520;28;20048;-74
2022/10/19 02:05:46;;;;;;;5.93;1.17;;;;;;;13.55;74.94;101039.72;5058614;28;20052;-75
2022/10/19 02:08:19;;;;;;;3.88;1.20;;;;;;;13.53;75.18;101033.69;5036595;28;20631;-75
2022/10/19 02:10:46;;;;;;;5.05;1.23;;;;;;;13.46;74.94;101031.19;5062080;28;20036;-76
2022/10/19 02:13:17;;;;;;;6.88;1.27;;;;;;;13.43;75.42;101035.31;5048892;28;20049;-75
2022/10/19 02:15:49;;;;;;;6.10;1.35;;;;;;;13.35;75.69;101035.84;5061005;28;20032;-76
2022/10/19 02:18:30;;;;;;;4.38;0.95;;;;;;;13.27;75.99;101014.34;5057016;28;20048;-74
2022/10/19 02:20:59;;;;;;;5.63;1.23;;;;;;;13.10;76.37;101007.16;5075278;28;20024;-76
2022/10/19 02:23:28;;;;;;;2.60;0.90;;;;;;;13.12;76.82;101014.31;5043940;28;20041;-76
2022/10/19 02:25:54;;;;;;;4.55;0.93;;;;;;;12.98;76.78;101003.81;5048557;28;20016;-76
2022/10/19 02:28:21;;;;;;;5.75;1.27;;;;;;;13.03;77.23;101011.25;5056720;28;20037;-75
2022/10/19 02:30:48;;;;;;;6.03;1.25;;;;;;;12.96;76.92;101008.72;5054417;28;20022;-76
2022/10/19 02:33:13;;;;;;;5.63;1.50;;;;;;;12.98;77.31;101009.31;5056080;28;20040;-76
2022/10/19 02:35:39;;;;;;;5.40;1.40;;;;;;;12.96;77.49;100995.00;5054972;28;20028;-75
2022/10/19 02:38:11;;;;;;;6.57;1.65;;;;;;;13.01;78.03;100985.97;5049670;28;20155;-76
2022/10/19 02:40:42;;;;;;;4.30;1.42;;;;;;;12.94;77.30;100967.00;5056284;28;20024;-75
2022/10/19 02:43:13;;;;;;;4.93;1.30;;;;;;;12.85;77.95;100961.22;5081046;28;20108;-76
2022/10/19 02:46:01;;;;;;;3.28;1.17;;;;;;;12.82;77.82;100959.00;5066201;28;20022;-75
2022/10/19 02:48:30;;;;;;;3.60;1.17;;;;;;;12.79;78.19;100950.47;5078763;28;20632;-77
2022/10/19 02:50:56;;;;;;;6.93;1.10;;;;;;;12.76;78.38;100946.34;5066701;28;20020;-76
2022/10/19 02:53:21;;;;;;;2.75;1.02;;;;;;;12.68;78.44;100935.91;5064718;28;20111;-76
2022/10/19 02:55:48;;;;;;;6.30;1.42;;;;;;;12.58;78.23;100942.16;5077118;28;20036;-75
2022/10/19 02:58:13;;;;;;;4.53;1.23;;;;;;;12.59;78.70;100949.28;5079636;28;20028;-75
2022/10/19 03:00:41;;;;;;;9.25;1.58;;;;;;;12.49;78.31;100932.78;5076011;28;20218;-72
2022/10/19 03:03:07;;;;;;;7.28;1.40;;;;;;;12.49;78.52;100928.13;5065816;28;20032;-72
2022/10/19 03:05:37;;;;;;;4.82;1.13;;;;;;;12.53;78.17;100928.41;5077316;28;20115;-74
2022/10/19 03:08:03;;;;;;;6.15;1.63;;;;;;;12.50;78.72;100920.69;5034311;28;20036;-74
2022/10/19 03:10:28;;;;;;;7.38;1.40;;;;;;;12.46;78.70;100930.56;5060925;28;20028;-73
2022/10/19 03:12:57;;;;;;;6.97;1.33;;;;;;;12.39;79.35;100920.66;5036146;28;20071;-73
2022/10/19 03:15:25;;;;;;;3.83;1.35;;;;;;;12.51;78.80;100933.34;5076457;28;20496;-74
2022/10/19 03:18:03;;;;;;;4.18;1.25;;;;;;;12.57;79.41;100927.63;5060781;28;20036;-73
2022/10/19 03:20:35;;;;;;;5.18;1.23;;;;;;;12.56;79.28;100908.69;5068302;28;20055;-73
2022/10/19 03:23:00;;;;;;;6.40;1.55;;;;;;;12.61;79.50;100911.44;5077030;28;20048;-71
2022/10/19 03:25:28;;;;;;;2.92;0.88;;;;;;;12.51;79.73;100900.41;5039307;28;20178;-75
2022/10/19 03:27:54;;;;;;;8.65;1.90;;;;;;;12.44;79.61;100883.38;5064824;28;20031;-75
2022/10/19 03:30:20;;;;;;;6.20;1.85;;;;;;;12.57;79.43;100899.34;5056145;28;20036;-74
2022/10/19 03:32:45;;;;;;;8.57;2.03;;;;;;;12.52;79.74;100902.06;5058894;28;20028;-73
2022/10/19 03:35:11;;;;;;;6.07;1.40;;;;;;;12.50;79.83;100893.28;5042603;28;20032;-73
2022/10/19 03:37:41;;;;;;;4.22;1.33;;;;;;;12.54;79.90;100894.38;5041327;28;20157;-73
2022/10/19 03:40:08;;;;;;;4.70;1.00;;;;;;;12.54;79.76;100892.50;5068884;28;20024;-74
2022/10/19 03:42:33;;;;;;;4.38;1.15;;;;;;;12.55;79.78;100891.38;5060662;28;20136;-75
2022/10/19 03:44:58;;;;;;;3.92;1.17;;;;;;;12.58;79.80;100903.75;5072346;28;20043;-74
2022/10/19 03:47:24;;;;;;;3.55;1.02;;;;;;;12.49;80.06;100891.66;5058818;28;20040;-75
2022/10/19 03:49:50;;;;;;;7.00;1.55;;;;;;;12.49;80.54;100891.66;5074484;28;20021;-74
2022/10/19 03:52:17;;;;;;;4.75;1.52;;;;;;;12.47;80.15;100891.91;5085683;28;20039;-73
2022/10/19 03:54:43;;;;;;;3.88;1.08;;;;;;;12.49;80.19;100891.66;5063866;28;20020;-72
2022/10/19 03:57:09;;;;;;;5.70;1.27;;;;;;;12.52;80.23;100882.88;5059025;28;20033;-73
2022/10/19 03:59:34;;;;;;;3.30;1.20;;;;;;;12.51;80.26;100867.50;5078219;28;20393;-73
2022/10/19 04:02:00;;;;;;;5.13;1.20;;;;;;;12.48;80.56;100870.78;5059159;28;20025;-74
2022/10/19 04:04:25;;;;;;;7.32;1.45;;;;;;;12.47;80.16;100861.75;5070413;28;20083;-73
2022/10/19 04:06:52;;;;;;;6.05;1.50;;;;;;;12.52;81.21;100859.00;5070606;28;20801;-74
2022/10/19 04:09:21;;;;;;;7.90;1.20;;;;;;;12.61;80.78;100851.06;5061778;28;20083;-74
2022/10/19 04:11:47;;;;;;;6.78;1.55;;;;;;;12.78;80.55;100856.34;5080194;28;20031;-72
2022/10/19 04:14:15;;;;;;;5.55;1.13;;;;;;;12.70;80.11;100849.47;5048194;28;20028;-73
2022/10/19 04:16:43;;;;;;;3.17;1.00;;;;;;;12.65;80.16;100846.69;5071645;28;20433;-73
2022/10/19 04:19:13;;;;;;;5.18;1.05;;;;;;;12.82;80.14;100845.66;5077724;28;20037;-74
2022/10/19 04:21:39;;;;;;;3.83;1.30;;;;;;;12.85;80.10;100834.13;5082717;28;20025;-73
2022/10/19 04:24:13;;;;;;;5.15;1.10;;;;;;;12.80;79.38;100843.16;5066817;28;20054;-73
2022/10/19 04:26:42;;;;;;;4.20;1.08;;;;;;;12.65;80.09;100835.72;5078566;28;20419;-72
2022/10/19 04:29:10;;;;;;;5.50;1.30;;;;;;;12.68;79.79;100834.38;5080181;28;20053;-73
2022/10/19 04:31:36;;;;;;;3.70;1.40;;;;;;;12.59;79.76;100831.31;5058028;28;20657;-72
2022/10/19 04:34:02;;;;;;;5.07;1.40;;;;;;;12.44;80.21;100829.38;5076826;28;20032;-75
2022/10/19 04:36:27;;;;;;;6.07;1.45;;;;;;;12.47;80.65;100831.56;5064707;28;20393;-74
2022/10/19 04:38:55;;;;;;;3.05;1.20;;;;;;;12.40;80.33;100817.28;5072666;28;20033;-74
2022/10/19 04:41:23;;;;;;;3.50;1.25;;;;;;;12.31;80.36;100813.38;5056063;28;20045;-74
2022/10/19 04:43:55;;;;;;;4.85;1.35;;;;;;;12.37;81.06;100810.41;5033681;28;20120;-74
2022/10/19 04:46:23;;;;;;;3.88;1.13;;;;;;;12.53;80.94;100799.50;5056924;28;20036;-72
2022/10/19 04:48:54;;;;;;;7.20;1.13;;;;;;;12.57;80.13;100795.09;5061942;28;20029;-73
2022/10/19 04:51:20;;;;;;;7.93;1.52;;;;;;;12.58;80.33;100803.06;5044472;28;20131;-74
2022/10/19 04:53:49;;;;;;;7.30;1.33;;;;;;;12.67;79.89;100788.81;5059713;28;20025;-74
2022/10/19 04:56:22;;;;;;;5.72;1.45;;;;;;;12.72;79.26;100797.88;5057578;28;20033;-75
2022/10/19 04:58:48;;;;;;;5.00;1.25;;;;;;;12.66;80.14;100793.50;5062309;28;20032;-75
2022/10/19 05:01:37;;;;;;;7.78;1.48;;;;;;;12.58;79.68;100788.53;5035271;28;20092;-74
2022/10/19 05:04:02;;;;;;;4.40;1.60;;;;;;;12.55;79.52;100780.84;5049290;28;20032;-73
2022/10/19 05:06:30;;;;;;;6.30;1.30;;;;;;;12.53;80.08;100788.53;5037627;28;20084;-74
2022/10/19 05:08:55;;;;;;;7.47;1.38;;;;;;;12.47;80.55;100786.84;5057312;28;20128;-74
2022/10/19 05:11:21;;;;;;;4.50;1.27;;;;;;;12.50;80.09;100789.03;5061992;28;20052;-75
2022/10/19 05:13:47;;;;;;;5.32;1.10;;;;;;;12.45;80.14;100789.03;5053176;28;21717;-75
2022/10/19 05:16:19;;;;;;;5.97;1.50;;;;;;;12.38;80.55;100803.84;5056529;28;20017;-74
2022/10/19 05:19:00;;;;;;;5.50;1.08;;;;;;;12.26;80.36;100792.25;5056730;28;20085;-74
2022/10/19 05:21:27;;;;;;;3.53;1.15;;;;;;;12.24;80.75;100799.94;5051735;28;20041;-74
2022/10/19 05:23:54;;;;;;;7.72;1.10;;;;;;;12.20;81.21;100801.56;5058946;28;20058;-74
2022/10/19 05:26:22;;;;;;;7.85;1.67;;;;;;;12.19;81.18;100813.59;5054179;28;20025;-75
2022/10/19 05:28:56;;;;;;;4.53;1.20;;;;;;;12.15;80.94;100798.78;5032383;28;20029;-73
2022/10/19 05:31:27;;;;;;;4.13;1.15;;;;;;;12.17;81.01;100796.63;5054545;28;20098;-74
2022/10/19 05:34:02;;;;;;;;;;;;;;;;;;;;;
2022/10/19 05:36:36;;;;;;;3.15;1.30;;;;;;;12.30;81.66;100812.56;5053813;28;20136;-76
2022/10/19 05:39:10;;;;;;;8.52;1.60;;;;;;;12.31;81.56;100814.22;5054109;28;20047;-75
2022/10/19 05:41:36;;;;;;;3.47;1.70;;;;;;;12.35;81.16;100814.50;5067269;28;20041;-76
2022/10/19 05:44:03;;;;;;;4.82;1.48;;;;;;;12.38;81.35;100817.53;5057372;28;20029;-74
2022/10/19 05:46:29;;;;;;;7.40;2.05;;;;;;;12.39;81.26;100810.94;5042254;28;20037;-75
2022/10/19 05:48:56;;;;;;;9.65;2.33;;;;;;;12.42;81.60;100803.28;5048819;28;20032;-75
2022/10/19 05:51:23;;;;;;;3.63;1.60;;;;;;;12.43;81.31;100796.72;5059641;28;20029;-74
2022/10/19 05:53:55;;;;;;;5.15;1.60;;;;;;;12.35;81.51;100782.44;5050075;28;20065;-75
2022/10/19 05:56:24;;;;;;;10.68;2.20;;;;;;;12.53;81.22;100783.84;5054440;28;20450;-76
2022/10/19 05:58:52;;;;;;;4.68;1.35;;;;;;;12.58;81.07;100774.81;5049518;28;21064;-76
2022/10/19 06:01:29;;;;;;;5.05;1.85;;;;;;;12.70;80.42;100772.66;5043622;28;20063;-75
2022/10/19 06:04:09;;;;;;;;;;;;;;;;;;;;;
2022/10/19 06:06:35;;;;;;;5.05;1.48;;;;;;;12.82;80.36;100747.69;5055982;28;20115;-74
2022/10/19 06:09:01;;;;;;;7.05;1.77;;;;;;;12.84;79.80;100755.66;5057895;28;20071;-75
2022/10/19 06:11:36;;;;;;;4.82;1.23;;;;;;;12.92;79.92;100768.81;5039059;28;20040;-75
2022/10/19 06:14:05;;;;;;;6.07;1.92;;;;;;;12.86;79.62;100756.19;5063877;28;20463;-76
2022/10/19 06:16:39;;;;;;;6.25;2.17;;;;;;;12.85;80.42;100768.25;5048572;28;20529;-75
2022/10/19 06:19:05;;;;;;;7.55;1.75;;;;;;;12.81;79.68;100761.69;5058662;28;20040;-76
2022/10/19 06:21:34;;;;;;;5.55;1.70;;;;;;;12.64;80.02;100740.78;5038406;28;20033;-75
2022/10/19 06:24:01;;;;;;;4.35;1.70;;;;;;;12.69;80.15;100749.03;5048511;28;20039;-74
2022/10/19 06:26:35;;;;;;;4.78;1.75;;;;;;;12.60;80.29;100734.22;5050686;28;20043;-75
2022/10/19 06:29:04;;;;;;;6.37;2.50;;;;;;;12.59;80.67;100738.06;5067633;28;20026;-73
2022/10/19 06:31:35;;;;;;;4.03;1.58;;;;;;;12.66;80.63;100744.09;5066067;28;20031;-75
2022/10/19 06:34:01;;;;;;;9.32;2.95;;;;;;;12.58;80.58;100747.38;5033913;28;20021;-74
2022/10/19 06:36:40;;;;;;;9.00;2.30;;;;;;;12.64;80.49;100742.72;5056232;28;20037;-75
2022/10/19 06:39:05;;;;;;;11.80;2.92;;;;;;;12.60;79.93;100717.75;5048399;28;20036;-73
2022/10/19 06:41:40;;;;;;;8.50;2.78;;;;;;;12.72;79.73;100726.53;5041140;28;20053;-74
2022/10/19 06:44:06;;;;;;;11.73;2.50;;;;;;;12.85;79.95;100727.09;5051308;28;20043;-71
2022/10/19 06:46:32;;;;;;;8.10;2.90;;;;;;;12.85;79.52;100713.34;5043926;28;20032;-73
2022/10/19 06:49:01;;;;;;;9.70;2.67;;;;;;;13.00;79.08;100721.59;5038961;28;20547;-74
2022/10/19 06:51:46;;;;;;;7.07;2.80;;;;;;;13.08;78.64;100718.31;5054823;28;20432;-74
2022/10/19 06:54:12;;;;;;;11.40;2.63;;;;;;;13.18;78.56;100717.47;5023093;28;20080;-74
2022/10/19 06:56:37;;;;;;;7.15;2.25;;;;;;;13.25;77.97;100728.19;5018645;28;20030;-73
2022/10/19 06:59:03;;;;;;;7.25;2.42;;;;;;;13.38;78.38;100729.56;5052344;28;20033;-74
2022/10/19 07:01:29;;;;;;;6.20;2.35;;;;;;;13.36;77.62;100726.25;5040143;28;20037;-73
2022/10/19 07:03:56;;;;;;;9.90;2.42;;;;;;;13.42;78.00;100728.75;5049249;28;20034;-74
2022/10/19 07:06:25;;;;;;;10.38;2.80;;;;;;;13.43;77.65;100727.66;5039651;28;20033;-72
2022/10/19 07:08:51;;;;;;;9.90;2.72;;;;;;;13.40;77.84;100719.97;5029051;28;20068;-72
2022/10/19 07:11:19;;;;;;;8.20;2.60;;;;;;;13.42;77.87;100720.50;5031247;28;20017;-74
2022/10/19 07:13:52;;;;;;;5.88;2.83;;;;;;;13.39;78.04;100696.34;5052393;28;20086;-73
2022/10/19 07:16:17;;;;;;;9.25;3.05;;;;;;;13.34;77.94;100698.22;5043999;28;20021;-73
2022/10/19 07:18:43;;;;;;;6.10;2.65;;;;;;;13.08;78.45;100706.50;5051287;28;20037;-73
2022/10/19 07:21:14;;;;;;;11.90;2.97;;;;;;;12.91;79.32;100712.28;5024379;28;20112;-73
2022/10/19 07:23:41;;;;;;;7.85;2.63;;;;;;;12.82;79.84;100708.44;5047802;28;20029;-73
2022/10/19 07:26:11;;;;;;;7.32;2.40;;;;;;;12.80;80.54;100699.66;5038577;28;20056;-74
2022/10/19 07:28:38;;;;;;;10.77;3.45;;;;;;;12.81;81.33;100701.31;5040454;28;20025;-73
2022/10/19 07:31:12;;;;;;;11.57;3.20;;;;;;;12.80;81.21;100710.63;5050542;28;20021;-74
2022/10/19 07:33:38;;;;;;;9.80;3.05;;;;;;;12.86;81.06;100720.50;5043791;28;20029;-73
2022/10/19 07:36:06;;;;;;;7.35;2.63;;;;;;;12.95;81.74;100721.59;5053671;28;20040;-69
2022/10/19 07:38:42;;;;;;;9.60;3.15;;;;;;;12.99;81.65;100708.97;5051126;28;20024;-71
2022/10/19 07:41:15;;;;;;;10.82;4.03;;;;;;;13.08;80.88;100707.34;5065092;28;20040;-72
2022/10/19 07:43:55;;;;;;;13.90;3.30;;;;;;;13.14;80.78;100705.41;5071818;28;20032;-71
2022/10/19 07:46:24;;;;;;;8.75;3.80;;;;;;;13.24;80.54;100699.06;5072262;28;20036;-72
2022/10/19 07:48:50;;;;;;;11.55;4.28;;;;;;;13.20;81.21;100686.97;5062471;28;20025;-70
2022/10/19 07:51:17;;;;;;;11.50;4.13;;;;;;;13.31;80.60;100694.09;5074167;28;20099;-70
2022/10/19 07:53:43;;;;;;;12.27;3.00;;;;;;;13.35;80.97;100684.25;5071160;28;20110;-72
2022/10/19 07:56:11;;;;;;;8.15;3.17;;;;;;;13.38;81.01;100667.22;5051246;28;20020;-71
2022/10/19 07:58:37;;;;;;;9.70;3.17;;;;;;;13.47;80.61;100674.88;5070996;28;20798;-70
2022/10/19 08:01:05;;;;;;;8.93;3.28;;;;;;;13.53;80.51;100676.50;5046491;28;20037;-70
2022/10/19 08:03:32;;;;;;;9.13;3.83;;;;;;;13.61;80.13;100665.75;5073491;28;20013;-71
2022/10/19 08:06:03;;;;;;;9.30;3.58;;;;;;;13.76;80.16;100678.63;5056570;28;20475;-72
2022/10/19 08:08:29;;;;;;;6.55;2.72;;;;;;;13.81;79.44;100669.53;5070483;28;20032;-71
2022/10/19 08:11:04;;;;;;;9.55;3.45;;;;;;;13.94;79.14;100673.59;5068525;28;20017;-73
2022/10/19 08:13:30;;;;;;;7.50;3.08;;;;;;;14.13;78.84;100677.34;5052106;28;20096;-74
2022/10/19 08:15:55;;;;;;;7.38;2.97;;;;;;;14.26;78.21;100664.06;5060241;28;20055;-72
2022/10/19 08:18:21;;;;;;;10.52;3.40;;;;;;;14.33;77.72;100670.06;5051483;28;20035;-72
2022/10/19 08:20:47;;;;;;;10.55;3.08;;;;;;;14.33;77.43;100667.31;5075631;28;20100;-72
2022/10/19 08:23:12;;;;;;;6.88;2.72;;;;;;;14.36;77.02;100664.00;5066304;28;20056;-72
2022/10/19 08:25:38;;;;;;;8.55;3.08;;;;;;;14.40;76.79;100665.06;5051385;28;20021;-71
2022/10/19 08:28:03;;;;;;;7.70;3.55;;;;;;;14.41;76.88;100663.97;5070323;28;20355;-72
2022/10/19 08:30:29;;;;;;;10.95;3.13;;;;;;;14.42;76.84;100657.34;5063718;28;20147;-72
2022/10/19 08:32:57;;;;;;;9.68;3.40;;;;;;;14.37;76.54;100642.81;5076624;28;20040;-71
2022/10/19 08:35:22;;;;;;;10.32;3.40;;;;;;;14.46;76.59;100652.09;5058929;28;20047;-72
2022/10/19 08:37:48;;;;;;;7.72;2.70;;;;;;;14.53;76.54;100651.75;5063601;28;20056;-72
2022/10/19 08:40:25;;;;;;;9.13;3.25;;;;;;;14.63;76.54;100659.97;5057608;28;20102;-72
2022/10/19 08:43:21;;;;;;;11.25;3.17;;;;;;;14.75;75.74;100657.69;5064162;28;20060;-70
2022/10/19 08:46:08;;;;;;;9.10;3.20;;;;;;;14.87;75.51;100662.81;5051403;28;20043;-71
2022/10/19 08:48:36;;;;;;;12.20;2.90;;;;;;;15.12;74.87;100647.97;5051530;28;20075;-73
2022/10/19 08:51:06;;;;;;;7.82;2.78;;;;;;;15.41;73.55;100644.34;5040784;28;20040;-72
2022/10/19 08:53:38;;;;;;;10.60;2.90;;;;;;;15.75;72.60;100653.59;5043220;28;20061;-72
2022/10/19 08:56:07;;;;;;;6.72;2.72;;;;;;;15.88;71.60;100648.19;5043359;28;20032;-72
2022/10/19 08:58:36;;;;;;;5.35;2.72;;;;;;;16.10;71.16;100644.03;5052909;28;20024;-72
2022/10/19 09:01:12;;;;;;;12.32;2.95;;;;;;;16.22;70.54;100638.06;5041629;28;20021;-71
2022/10/19 09:04:05;;;;;;;12.25;2.58;;;;;;;16.57;69.50;100625.69;5058033;28;20025;-72
2022/10/19 09:06:44;;;;;;;11.25;3.20;;;;;;;17.04;67.73;100605.53;5058020;28;20033;-72
2022/10/19 09:09:13;;;;;;;8.25;2.75;;;;;;;17.79;65.86;100618.13;5035249;28;20051;-73
2022/10/19 09:11:49;;;;;;;9.60;2.20;;;;;;;19.18;63.01;100633.34;5063836;28;20063;-71
2022/10/19 09:14:27;;;;;;;11.00;2.85;;;;;;;21.43;55.25;100638.44;5042111;28;20073;-72
2022/10/19 09:17:02;;;;;;;5.07;1.92;;;;;;;24.52;48.37;100630.84;5045707;28;20029;-72
2022/10/19 09:19:31;;;;;;;10.95;2.88;;;;;;;27.11;41.01;100635.22;5053677;28;20057;-72
2022/10/19 09:22:04;;;;;;;5.50;2.60;;;;;;;29.09;38.14;100635.13;5036705;28;20040;-72
2022/10/19 09:24:44;;;;;;;6.80;1.97;;;;;;;29.76;35.61;100636.09;5041558;28;20029;-72
2022/10/19 09:27:23;;;;;;;10.65;2.65;;;;;;;28.01;36.79;100645.94;5051235;28;20024;-71
2022/10/19 09:30:01;;;;;;;9.65;1.92;;;;;;;25.89;40.35;100645.56;5054026;28;20082;-72
2022/10/19 09:32:31;;;;;;;13.15;2.95;;;;;;;24.07;43.78;100637.53;5032679;28;20506;-73
2022/10/19 09:35:01;;;;;;;5.18;2.25;;;;;;;22.76;46.49;100639.97;5053831;28;20363;-71
2022/10/19 09:37:46;;;;;;;;;;;;;;;;;;;;;
2022/10/19 09:40:37;;;;;;;7.57;2.70;;;;;;;21.36;50.90;100638.16;5050570;28;20103;-71
2022/10/19 09:43:22;;;;;;;11.18;3.75;;;;;;;20.66;52.61;100610.59;5044420;28;20056;-71
2022/10/19 09:46:17;;;;;;;9.50;3.10;;;;;;;19.93;54.70;100622.34;5050986;28;20024;-72
2022/10/19 09:48:51;;;;;;;9.30;3.83;;;;;;;19.58;56.16;100629.75;5051011;28;20044;-71
2022/10/19 09:51:17;;;;;;;12.57;3.75;;;;;;;19.28;58.04;100624.75;5040786;28;20137;-74
2022/10/19 09:53:56;;;;;;;16.02;3.72;;;;;;;19.78;57.22;100620.00;5040981;28;20037;-72
2022/10/19 09:56:26;;;;;;;10.02;3.17;;;;;;;20.71;54.95;100624.31;5014793;28;20034;-72
2022/10/19 09:58:57;;;;;;;10.48;3.15;;;;;;;20.86;54.01;100617.41;5040055;28;20056;-72
2022/10/19 10:01:37;;;;;;;11.95;4.25;;;;;;;20.32;54.65;100606.66;5042081;28;20689;-72
2022/10/19 10:04:17;;;;;;;9.05;2.63;;;;;;;19.49;57.20;100593.66;5038249;28;20041;-73
2022/10/19 10:06:46;;;;;;;12.55;2.75;;;;;;;19.99;57.17;100575.81;5035213;28;21307;-74
2022/10/19 10:09:16;;;;;;;7.70;2.60;;;;;;;22.59;51.61;100592.75;5040274;28;20033;-75
2022/10/19 10:11:44;;;;;;;9.95;2.88;;;;;;;24.32;47.13;100578.78;5049677;28;20025;-74
2022/10/19 10:14:26;;;;;;;6.90;2.92;;;;;;;27.35;39.83;100589.16;5051432;28;20052;-74
2022/10/19 10:16:59;;;;;;;5.97;2.63;;;;;;;29.68;36.24;100573.22;5047439;28;20017;-74
2022/10/19 10:19:28;;;;;;;7.63;2.10;;;;;;;31.55;32.11;100583.34;5031432;28;20037;-74
2022/10/19 10:21:56;;;;;;;6.05;2.60;;;;;;;33.19;28.94;100566.75;5045749;28;20017;-73
2022/10/19 10:27:55;;;;;;;8.43;2.47;;;;;;;35.50;25.38;100560.84;5052714;28;20044;-72
2022/10/19 10:30:20;;;;;;;12.38;4.22;;;;;;;35.01;25.40;100563.31;5048926;28;20075;-72
2022/10/19 10:32:49;;;;;;;7.00;3.60;;;;;;;34.52;26.34;100555.94;5053120;28;20041;-71
2022/10/19 10:35:24;;;;;;;11.55;3.90;;;;;;;34.64;26.26;100556.56;5045296;28;20043;-73
2022/10/19 10:38:03;;;;;;;9.52;3.40;;;;;;;34.23;26.34;100556.31;5041493;28;20022;-72
2022/10/19 10:40:30;;;;;;;8.63;3.38;;;;;;;34.28;26.90;100557.09;5046267;28;20047;-73
2022/10/19 10:43:03;;;;;;;8.68;3.42;;;;;;;33.33;27.19;100551.66;5061671;28;20060;-73
2022/10/19 10:45:38;;;;;;;8.85;2.72;;;;;;;33.08;28.11;100546.22;5044533;28;20102;-72
2022/10/19 10:48:36;;;;;;;6.63;2.15;;;;;;;33.68;26.89;100537.53;5051008;28;20076;-72
2022/10/19 10:51:36;;;;;;;6.82;2.63;;;;;;;34.33;26.93;100531.06;5047566;28;20030;-72
2022/10/19 10:54:16;;;;;;;6.22;1.70;;;;;;;34.69;26.53;100536.22;5052875;28;20093;-72
2022/10/19 10:56:53;;;;;;;4.95;2.10;;;;;;;35.77;25.06;100545.66;5048646;28;20119;-72
2022/10/19 10:59:32;;;;;;;8.48;2.10;;;;;;;36.98;23.57;100529.94;5041503;28;20079;-74
2022/10/19 11:02:28;;;;;;;5.72;2.38;;;;;;;38.09;22.63;100524.44;5043514;28;20025;-72
2022/10/19 11:05:00;;;;;;;4.95;1.88;;;;;;;38.81;21.45;100505.03;5057784;28;20031;-72
2022/10/19 11:07:28;;;;;;;3.40;2.20;;;;;;;38.60;21.55;100518.75;5059509;28;20096;-73
2022/10/19 11:10:11;;;;;;;5.65;2.15;;;;;;;38.21;21.68;100492.28;5062836;28;20056;-72
2022/10/19 11:12:41;;;;;;;6.10;2.22;;;;;;;36.10;23.44;100483.22;5068005;28;20032;-72
2022/10/19 11:15:21;;;;;;;6.18;1.80;;;;;;;33.37;27.09;100484.44;5061239;28;20418;-70
2022/10/19 11:17:55;;;;;;;2.90;1.50;;;;;;;31.64;29.81;100487.66;5047319;28;20038;-70
2022/10/19 11:20:28;;;;;;;5.97;1.75;;;;;;;30.79;31.08;100482.53;5069980;28;20146;-71
2022/10/19 11:23:09;;;;;;;6.85;2.42;;;;;;;29.98;32.53;100462.28;5061264;28;20017;-71
2022/10/19 11:25:53;;;;;;;7.00;1.95;;;;;;;29.69;33.75;100450.88;5052977;28;20037;-71
2022/10/19 11:28:45;;;;;;;4.57;1.85;;;;;;;30.17;33.44;100451.84;5045581;28;20089;-72
2022/10/19 11:31:21;;;;;;;4.38;1.83;;;;;;;31.20;32.30;100438.16;5065559;28;20037;-72
2022/10/19 11:34:22;;;;;;;4.63;1.42;;;;;;;33.22;29.60;100429.97;5057678;28;20025;-71
2022/10/19 11:37:09;;;;;;;5.47;1.98;;;;;;;33.84;27.71;100423.56;5052192;28;20075;-73
2022/10/19 11:40:06;;;;;;;7.45;2.38;;;;;;;32.28;29.63;100434.84;5068261;28;20104;-73
2022/10/19 11:42:42;;;;;;;4.32;2.13;;;;;;;31.18;31.16;100406.66;5041885;28;20045;-73
2022/10/19 11:45:17;;;;;;;6.25;2.10;;;;;;;30.54;32.91;100419.69;5061557;28;20029;-73
2022/10/19 11:48:10;;;;;;;4.32;1.55;;;;;;;30.84;32.94;100415.59;5054578;28;20178;-73
2022/10/19 11:50:56;;;;;;;5.82;1.98;;;;;;;30.30;32.53;100399.50;5059625;28;20039;-72
2022/10/19 11:53:44;;;;;;;7.10;2.42;;;;;;;30.18;33.38;100385.78;5073847;28;20036;-73
2022/10/19 11:56:19;;;;;;;4.53;2.00;;;;;;;30.73;32.72;100385.38;5073739;28;20021;-73